createdAt,value
2023-04-17T00:01:04.035Z,33.50
2023-04-17T00:03:31.896Z,33.07
2023-04-17T00:05:58.543Z,31.33
2023-04-17T00:08:25.049Z,31.87
2023-04-17T00:11:04.117Z,32.70
2023-04-17T00:13:33.952Z,32.90
2023-04-17T00:16:00.490Z,32.60
2023-04-17T00:18:26.985Z,33.97
2023-04-17T00:20:53.647Z,36.20
2023-04-17T00:23:20.307Z,35.07
2023-04-17T00:25:46.726Z,33.67
2023-04-17T00:28:13.204Z,33.90
2023-04-17T00:30:39.593Z,36.70
2023-04-17T00:33:06.083Z,34.03
2023-04-17T00:35:32.547Z,33.00
2023-04-17T00:37:58.997Z,34.53
2023-04-17T00:40:25.383Z,34.97
2023-04-17T00:42:56.038Z,34.93
2023-04-17T00:45:22.563Z,36.60
2023-04-17T00:47:49.970Z,35.17
2023-04-17T00:50:16.551Z,34.90
2023-04-17T00:52:44.111Z,35.07
2023-04-17T00:55:10.985Z,36.00
2023-04-17T00:57:37.564Z,34.90
2023-04-17T01:00:04.546Z,37.07
2023-04-17T01:02:31.258Z,35.67
2023-04-17T01:04:57.886Z,36.13
2023-04-17T01:07:24.415Z,35.67
2023-04-17T01:09:51.096Z,36.97
2023-04-17T01:12:25.140Z,34.37
2023-04-17T01:14:52.751Z,36.27
2023-04-17T01:17:19.620Z,35.07
2023-04-17T01:22:27.255Z,34.37
2023-04-17T01:24:53.665Z,36.67
2023-04-17T01:27:22.397Z,37.97
2023-04-17T01:29:48.920Z,36.77
2023-04-17T01:32:17.065Z,37.70
2023-04-17T01:34:43.491Z,39.70
2023-04-17T01:37:10.067Z,38.37
2023-04-17T01:39:37.197Z,41.03
2023-04-17T01:42:03.929Z,39.30
2023-04-17T01:44:30.371Z,38.30
2023-04-17T01:46:56.888Z,38.33
2023-04-17T01:49:23.328Z,37.80
2023-04-17T01:51:49.968Z,38.47
2023-04-17T01:54:16.403Z,41.33
2023-04-17T01:56:42.766Z,44.70
2023-04-17T01:59:10.636Z,40.67
2023-04-17T02:01:37.400Z,43.13
2023-04-17T02:04:04.134Z,40.43
2023-04-17T02:06:32.016Z,40.63
2023-04-17T02:08:59.509Z,43.83
2023-04-17T02:11:26.320Z,46.17
2023-04-17T02:13:52.895Z,44.30
2023-04-17T02:16:21.653Z,44.27
2023-04-17T02:18:49.445Z,45.50
2023-04-17T02:21:16.019Z,43.57
2023-04-17T02:23:42.731Z,44.80
2023-04-17T02:26:09.183Z,44.50
2023-04-17T02:28:35.643Z,44.87
2023-04-17T02:31:02.196Z,42.20
2023-04-17T02:33:28.575Z,40.70
2023-04-17T02:35:54.978Z,39.97
2023-04-17T02:38:21.591Z,43.53
2023-04-17T02:40:47.978Z,44.00
2023-04-17T02:43:14.468Z,47.83
2023-04-17T02:45:40.884Z,44.73
2023-04-17T02:48:07.322Z,48.67
2023-04-17T02:50:34.096Z,48.23
2023-04-17T02:53:00.571Z,49.33
2023-04-17T02:55:27.134Z,52.13
2023-04-17T02:57:53.614Z,53.53
2023-04-17T03:00:21.126Z,54.70
2023-04-17T03:02:48.163Z,54.17
2023-04-17T03:05:16.273Z,52.80
2023-04-17T03:07:42.685Z,54.00
2023-04-17T03:10:09.691Z,52.93
2023-04-17T03:12:36.162Z,51.50
2023-04-17T03:15:02.788Z,55.60
2023-04-17T03:17:29.222Z,54.10
2023-04-17T03:19:55.768Z,56.70
2023-04-17T03:22:22.177Z,53.73
2023-04-17T03:24:48.563Z,53.77
2023-04-17T03:27:14.957Z,56.47
2023-04-17T03:29:41.356Z,55.87
2023-04-17T03:32:08.042Z,53.33
2023-04-17T03:34:34.551Z,53.10
2023-04-17T03:37:00.966Z,52.73
2023-04-17T03:39:27.371Z,52.53
2023-04-17T03:41:53.824Z,53.07
2023-04-17T03:44:20.244Z,55.87
2023-04-17T03:46:46.705Z,52.93
2023-04-17T03:49:13.354Z,56.37
2023-04-17T03:51:39.914Z,54.50
2023-04-17T03:54:06.441Z,54.63
2023-04-17T03:56:32.934Z,54.07
2023-04-17T03:58:59.506Z,55.10
2023-04-17T04:01:28.275Z,53.43
2023-04-17T04:03:55.399Z,53.50
2023-04-17T04:06:22.500Z,52.03
2023-04-17T04:08:49.423Z,53.47
2023-04-17T04:11:16.226Z,55.40
2023-04-17T04:13:42.676Z,54.63
2023-04-17T04:16:09.332Z,53.80
2023-04-17T04:18:36.420Z,53.63
2023-04-17T04:21:03.172Z,54.37
2023-04-17T04:23:30.576Z,56.30
2023-04-17T04:25:57.965Z,53.33
2023-04-17T04:28:24.453Z,54.97
2023-04-17T04:30:53.582Z,55.37
2023-04-17T04:33:20.909Z,53.00
2023-04-17T04:35:48.616Z,51.90
2023-04-17T04:38:17.100Z,55.60
2023-04-17T04:40:49.872Z,53.30
2023-04-17T04:43:16.409Z,53.77
2023-04-17T04:45:42.806Z,54.90
2023-04-17T04:48:09.249Z,52.47
2023-04-17T04:50:35.870Z,50.17
2023-04-17T04:53:02.333Z,50.87
2023-04-17T04:55:30.529Z,49.17
2023-04-17T04:57:57.516Z,49.33
2023-04-17T05:00:24.805Z,44.80
2023-04-17T05:02:51.420Z,47.10
2023-04-17T05:05:17.872Z,45.83
2023-04-17T05:07:44.255Z,47.40
2023-04-17T05:10:10.753Z,48.43
2023-04-17T05:12:37.153Z,48.40
2023-04-17T05:15:03.910Z,50.77
2023-04-17T05:17:30.443Z,49.27
2023-04-17T05:19:56.846Z,48.47
2023-04-17T05:22:23.213Z,46.00
2023-04-17T05:24:49.651Z,44.60
2023-04-17T05:27:16.550Z,46.30
2023-04-17T05:29:43.009Z,46.40
2023-04-17T05:32:09.555Z,45.20
2023-04-17T05:34:36.029Z,42.33
2023-04-17T05:37:03.314Z,44.50
2023-04-17T05:39:29.797Z,43.83
2023-04-17T05:41:56.443Z,43.80
2023-04-17T05:44:22.929Z,46.90
2023-04-17T05:46:49.369Z,42.87
2023-04-17T05:49:15.839Z,44.17
2023-04-17T05:51:42.478Z,42.87
2023-04-17T05:54:08.867Z,43.93
2023-04-17T05:56:35.616Z,43.60
2023-04-17T05:59:02.070Z,44.17
2023-04-17T06:01:29.910Z,47.90
2023-04-17T06:03:56.670Z,47.43
2023-04-17T06:06:23.522Z,50.97
2023-04-17T06:08:49.953Z,49.53
2023-04-17T06:11:17.184Z,52.50
2023-04-17T06:13:43.790Z,49.90
2023-04-17T06:16:10.538Z,48.23
2023-04-17T06:18:37.030Z,47.47
2023-04-17T06:21:03.562Z,48.40
2023-04-17T06:23:30.278Z,47.97
2023-04-17T06:25:57.350Z,45.93
2023-04-17T06:28:23.814Z,48.47
2023-04-17T06:30:50.320Z,47.07
2023-04-17T06:33:16.731Z,46.10
2023-04-17T06:35:43.138Z,49.17
2023-04-17T06:38:09.523Z,47.20
2023-04-17T06:40:36.034Z,46.23
2023-04-17T06:43:02.471Z,45.77
2023-04-17T06:45:28.858Z,43.00
2023-04-17T06:47:55.296Z,45.70
2023-04-17T06:50:21.785Z,45.67
2023-04-17T06:52:48.217Z,43.67
2023-04-17T06:55:14.856Z,41.10
2023-04-17T06:57:41.307Z,44.37
2023-04-17T07:00:08.385Z,41.57
2023-04-17T07:02:34.990Z,41.40
2023-04-17T07:05:02.163Z,41.20
2023-04-17T07:07:30.665Z,39.50
2023-04-17T07:09:57.605Z,41.80
2023-04-17T07:12:24.031Z,39.50
2023-04-17T07:14:51.110Z,38.40
2023-04-17T07:17:18.045Z,35.73
2023-04-17T07:19:44.550Z,34.67
2023-04-17T07:22:11.153Z,36.30
2023-04-17T07:24:37.525Z,35.90
2023-04-17T07:27:04.627Z,33.07
2023-04-17T07:29:31.299Z,35.63
2023-04-17T07:31:57.755Z,34.00
2023-04-17T07:34:27.182Z,32.03
2023-04-17T07:36:53.562Z,32.50
2023-04-17T07:39:20.008Z,30.90
2023-04-17T07:41:46.458Z,32.50
2023-04-17T07:44:13.094Z,30.60
2023-04-17T07:46:39.571Z,33.00
2023-04-17T07:49:06.188Z,33.57
2023-04-17T07:51:32.830Z,34.87
2023-04-17T07:53:59.250Z,35.20
2023-04-17T07:56:27.698Z,32.90
2023-04-17T07:58:54.133Z,32.97
2023-04-17T08:01:21.489Z,31.90
2023-04-17T08:03:48.853Z,31.87
2023-04-17T08:06:15.688Z,31.27
2023-04-17T08:08:47.353Z,32.97
2023-04-17T08:11:14.519Z,31.80
2023-04-17T08:13:41.073Z,30.93
2023-04-17T08:16:08.934Z,30.50
2023-04-17T08:18:37.423Z,31.20
2023-04-17T08:21:04.384Z,28.80
2023-04-17T08:23:31.001Z,29.17
2023-04-17T08:25:57.528Z,28.37
2023-04-17T08:28:24.699Z,27.97
2023-04-17T08:30:51.405Z,28.17
2023-04-17T08:33:18.605Z,27.27
2023-04-17T08:35:45.313Z,25.43
2023-04-17T08:38:14.073Z,26.40
2023-04-17T08:40:43.041Z,27.50
2023-04-17T08:43:16.125Z,25.90
2023-04-17T08:45:55.394Z,26.77
2023-04-17T08:48:25.017Z,26.80
2023-04-17T08:50:53.322Z,25.33
2023-04-17T08:53:20.949Z,26.23
2023-04-17T08:55:48.146Z,27.30
2023-04-17T08:58:15.083Z,25.47
2023-04-17T09:00:43.755Z,26.83
2023-04-17T09:03:12.731Z,25.43
2023-04-17T09:05:42.651Z,24.97
2023-04-17T09:08:15.741Z,28.63
2023-04-17T09:10:49.472Z,28.40
2023-04-17T09:13:18.180Z,25.73
2023-04-17T09:15:46.861Z,24.63
2023-04-17T09:18:32.941Z,25.70
2023-04-17T09:21:01.164Z,23.37
2023-04-17T09:23:29.763Z,22.47
2023-04-17T09:26:10.888Z,25.13
2023-04-17T09:28:41.334Z,22.47
2023-04-17T09:31:26.400Z,22.43
2023-04-17T09:33:58.061Z,21.30
2023-04-17T09:36:24.870Z,19.93
2023-04-17T09:38:51.708Z,19.80
2023-04-17T09:41:27.186Z,19.07
2023-04-17T09:43:55.739Z,20.90
2023-04-17T09:46:41.228Z,19.80
2023-04-17T09:49:11.029Z,19.37
2023-04-17T09:51:37.699Z,20.90
2023-04-17T09:54:06.829Z,21.40
2023-04-17T09:56:35.537Z,18.50
2023-04-17T09:59:06.220Z,18.03
2023-04-17T10:01:34.656Z,17.43
2023-04-17T10:04:02.507Z,17.77
2023-04-17T10:06:31.449Z,20.70
2023-04-17T10:08:58.181Z,18.73
2023-04-17T10:11:27.374Z,16.80
2023-04-17T10:14:12.112Z,16.07
2023-04-17T10:16:43.483Z,15.40
2023-04-17T10:19:32.447Z,15.10
2023-04-17T10:22:14.299Z,15.50
2023-04-17T10:24:41.129Z,17.07
2023-04-17T10:27:26.157Z,13.53
2023-04-17T10:30:00.190Z,13.53
2023-04-17T10:32:29.085Z,10.90
2023-04-17T10:35:22.525Z,12.57
2023-04-17T10:37:51.629Z,11.23
2023-04-17T10:40:24.140Z,10.87
2023-04-17T10:43:22.985Z,11.03
2023-04-17T10:45:58.194Z,11.43
2023-04-17T10:48:40.849Z,12.90
2023-04-17T10:51:28.875Z,12.63
2023-04-17T10:53:57.315Z,9.00
2023-04-17T10:56:29.021Z,8.43
2023-04-17T10:58:58.394Z,7.77
2023-04-17T11:01:37.697Z,7.50
2023-04-17T11:04:06.120Z,6.90
2023-04-17T11:06:38.147Z,6.80
2023-04-17T11:09:08.135Z,6.53
2023-04-17T11:11:44.689Z,6.83
2023-04-17T11:14:21.128Z,7.30
2023-04-17T11:16:49.896Z,6.97
2023-04-17T11:19:24.228Z,6.33
2023-04-17T11:21:53.408Z,7.50
2023-04-17T11:24:31.211Z,7.10
2023-04-17T11:27:03.972Z,6.07
2023-04-17T11:29:30.715Z,6.10
2023-04-17T11:31:57.617Z,7.43
2023-04-17T11:34:27.139Z,6.73
2023-04-17T11:36:59.332Z,6.10
2023-04-17T11:39:28.820Z,7.87
2023-04-17T11:41:57.005Z,7.53
2023-04-17T11:44:24.200Z,6.20
2023-04-17T11:46:54.840Z,6.43
2023-04-17T11:49:27.895Z,6.20
2023-04-17T11:51:56.650Z,5.83
2023-04-17T11:54:27.895Z,5.63
2023-04-17T11:57:02.204Z,6.10
2023-04-17T11:59:37.158Z,5.77
2023-04-17T12:02:08.217Z,5.30
2023-04-17T12:04:36.908Z,7.13
2023-04-17T12:07:04.750Z,5.93
2023-04-17T12:09:32.333Z,5.13
2023-04-17T12:12:04.390Z,5.60
2023-04-17T12:14:31.539Z,5.97
2023-04-17T12:16:58.111Z,5.70
2023-04-17T12:19:26.719Z,6.07
2023-04-17T12:21:54.275Z,5.50
2023-04-17T12:24:22.872Z,6.23
2023-04-17T12:26:50.606Z,5.57
2023-04-17T12:29:17.699Z,5.87
2023-04-17T12:31:45.090Z,5.80
2023-04-17T12:34:11.755Z,5.63
2023-04-17T12:36:38.648Z,7.03
2023-04-17T12:39:05.174Z,5.33
2023-04-17T12:41:31.922Z,5.90
2023-04-17T12:44:01.739Z,6.63
2023-04-17T12:46:28.379Z,5.70
2023-04-17T12:48:58.531Z,5.83
2023-04-17T12:51:29.102Z,5.80
2023-04-17T12:53:56.330Z,5.53
2023-04-17T12:56:23.109Z,4.80
2023-04-17T12:58:49.750Z,4.30
2023-04-17T13:01:16.273Z,4.80
2023-04-17T13:03:42.827Z,5.23
2023-04-17T13:06:09.453Z,5.83
2023-04-17T13:08:36.308Z,5.40
2023-04-17T13:11:03.961Z,6.90
2023-04-17T13:13:30.399Z,5.60
2023-04-17T13:15:56.800Z,5.47
2023-04-17T13:18:23.243Z,6.80
2023-04-17T13:20:49.685Z,5.50
2023-04-17T13:23:16.140Z,6.30
2023-04-17T13:25:42.841Z,4.33
2023-04-17T13:28:09.453Z,4.47
2023-04-17T13:30:37.253Z,4.93
2023-04-17T13:33:04.004Z,4.30
2023-04-17T13:35:30.565Z,4.90
2023-04-17T13:38:00.795Z,4.30
2023-04-17T13:40:27.295Z,4.47
2023-04-17T13:42:54.529Z,4.20
2023-04-17T13:45:21.376Z,4.10
2023-04-17T13:47:47.906Z,4.40
2023-04-17T13:50:14.440Z,4.30
2023-04-17T13:52:40.867Z,3.67
2023-04-17T13:55:11.765Z,3.73
2023-04-17T13:57:38.486Z,4.47
2023-04-17T14:00:06.328Z,3.80
2023-04-17T14:02:32.956Z,3.67
2023-04-17T14:04:59.865Z,3.90
2023-04-17T14:07:27.423Z,3.67
2023-04-17T14:09:54.029Z,2.90
2023-04-17T14:12:21.743Z,3.90
2023-04-17T14:14:48.299Z,4.03
2023-04-17T14:17:14.872Z,3.80
2023-04-17T14:19:41.370Z,3.80
2023-04-17T14:22:07.858Z,3.90
2023-04-17T14:24:34.219Z,3.50
2023-04-17T14:27:01.779Z,3.90
2023-04-17T14:29:28.435Z,4.30
2023-04-17T14:31:55.144Z,4.33
2023-04-17T14:34:21.825Z,3.67
2023-04-17T14:36:48.743Z,4.10
2023-04-17T14:39:15.467Z,3.73
2023-04-17T14:41:42.291Z,3.60
2023-04-17T14:44:08.914Z,3.60
2023-04-17T14:46:35.620Z,4.00
2023-04-17T14:49:02.621Z,5.57
2023-04-17T14:51:30.620Z,5.07
2023-04-17T14:53:57.532Z,4.70
2023-04-17T14:56:24.151Z,4.30
2023-04-17T14:58:50.724Z,4.10
2023-04-17T15:01:17.346Z,4.30
2023-04-17T15:03:47.322Z,4.47
2023-04-17T15:06:14.848Z,4.10
2023-04-17T15:08:41.637Z,4.03
2023-04-17T15:11:08.681Z,4.60
2023-04-17T15:13:35.846Z,4.60
2023-04-17T15:16:02.708Z,4.43
2023-04-17T15:18:29.272Z,5.20
2023-04-17T15:20:55.966Z,4.37
2023-04-17T15:23:22.834Z,4.50
2023-04-17T15:25:49.428Z,5.23
2023-04-17T15:28:16.094Z,4.60
2023-04-17T15:30:42.710Z,4.93
2023-04-17T15:33:10.239Z,4.90
2023-04-17T15:35:37.093Z,4.93
2023-04-17T15:38:03.746Z,4.30
2023-04-17T15:40:30.239Z,5.30
2023-04-17T15:42:56.811Z,5.03
2023-04-17T15:45:23.882Z,5.50
2023-04-17T15:47:50.511Z,6.33
2023-04-17T15:50:18.137Z,4.80
2023-04-17T15:52:44.916Z,5.00
2023-04-17T15:55:11.443Z,4.80
2023-04-17T15:57:38.049Z,5.20
2023-04-17T16:00:05.120Z,5.20
2023-04-17T16:02:31.673Z,5.40
2023-04-17T16:04:58.160Z,5.67
2023-04-17T16:07:24.603Z,5.27
2023-04-17T16:09:51.031Z,5.27
2023-04-17T16:12:17.576Z,5.10
2023-04-17T16:14:44.059Z,5.80
2023-04-17T16:17:10.588Z,5.03
2023-04-17T16:19:36.980Z,5.13
2023-04-17T16:22:03.628Z,5.90
2023-04-17T16:24:30.074Z,6.23
2023-04-17T16:26:58.249Z,5.30
2023-04-17T16:29:25.192Z,5.73
2023-04-17T16:31:53.141Z,5.47
2023-04-17T16:34:20.801Z,5.87
2023-04-17T16:36:48.157Z,5.80
2023-04-17T16:39:14.785Z,5.90
2023-04-17T16:41:41.851Z,6.20
2023-04-17T16:44:08.406Z,5.93
2023-04-17T16:46:52.081Z,5.70
2023-04-17T16:49:21.842Z,5.40
2023-04-17T16:51:48.270Z,7.27
2023-04-17T16:54:14.933Z,7.40
2023-04-17T16:56:42.076Z,7.13
2023-04-17T16:59:08.616Z,7.90
2023-04-17T17:01:35.165Z,8.30
2023-04-17T17:04:01.803Z,8.17
2023-04-17T17:06:28.409Z,7.73
2023-04-17T17:08:55.466Z,8.80
2023-04-17T17:11:22.203Z,9.73
2023-04-17T17:13:49.792Z,8.20
2023-04-17T17:16:17.797Z,7.60
2023-04-17T17:18:44.994Z,7.93
2023-04-17T17:21:11.476Z,7.33
2023-04-17T17:23:38.218Z,8.10
2023-04-17T17:26:05.516Z,7.50
2023-04-17T17:28:32.663Z,7.40
2023-04-17T17:31:03.948Z,6.40
2023-04-17T17:33:32.070Z,7.07
2023-04-17T17:35:59.045Z,6.90
2023-04-17T17:38:28.470Z,7.17
2023-04-17T17:40:56.139Z,8.00
2023-04-17T17:43:22.744Z,7.83
2023-04-17T17:45:49.387Z,7.37
2023-04-17T17:48:18.076Z,7.07
2023-04-17T17:50:44.505Z,8.60
2023-04-17T17:53:11.033Z,8.20
2023-04-17T17:55:38.078Z,6.60
2023-04-17T17:58:08.912Z,7.40
2023-04-17T18:00:35.508Z,7.53
2023-04-17T18:03:02.185Z,8.33
2023-04-17T18:05:28.732Z,9.70
2023-04-17T18:07:55.266Z,12.37
2023-04-17T18:10:21.657Z,9.50
2023-04-17T18:12:49.122Z,9.47
2023-04-17T18:15:15.527Z,11.07
2023-04-17T18:17:42.752Z,11.33
2023-04-17T18:20:09.651Z,9.73
2023-04-17T18:22:37.938Z,8.70
2023-04-17T18:25:08.298Z,9.53
2023-04-17T18:27:37.516Z,7.67
2023-04-17T18:30:05.491Z,9.40
2023-04-17T18:32:32.219Z,10.73
2023-04-17T18:34:59.068Z,12.20
2023-04-17T18:37:25.686Z,12.67
2023-04-17T18:39:52.665Z,11.20
2023-04-17T18:42:19.738Z,9.13
2023-04-17T18:44:46.200Z,8.60
2023-04-17T18:47:12.653Z,7.53
2023-04-17T18:49:39.176Z,7.17
2023-04-17T18:52:05.736Z,7.07
2023-04-17T18:54:32.169Z,6.60
2023-04-17T18:56:58.551Z,6.87
2023-04-17T18:59:26.164Z,5.97
2023-04-17T19:01:52.768Z,6.30
2023-04-17T19:04:19.624Z,6.03
2023-04-17T19:06:45.996Z,7.63
2023-04-17T19:09:12.715Z,6.43
2023-04-17T19:11:39.154Z,6.13
2023-04-17T19:14:05.652Z,5.80
2023-04-17T19:16:32.080Z,5.77
2023-04-17T19:18:58.576Z,5.90
2023-04-17T19:21:25.069Z,5.23
2023-04-17T19:23:51.557Z,6.20
2023-04-17T19:26:17.974Z,6.33
2023-04-17T19:28:44.365Z,5.90
2023-04-17T19:31:10.810Z,5.33
2023-04-17T19:33:37.260Z,5.20
2023-04-17T19:36:03.822Z,5.60
2023-04-17T19:38:31.396Z,5.63
2023-04-17T19:41:17.910Z,5.37
2023-04-17T19:43:52.577Z,5.33
2023-04-17T19:46:19.821Z,5.87
2023-04-17T19:48:47.325Z,6.23
2023-04-17T19:51:14.891Z,5.60
2023-04-17T19:53:43.724Z,6.00
2023-04-17T19:56:11.247Z,5.90
2023-04-17T19:58:38.445Z,6.00
2023-04-17T20:01:04.964Z,5.80
2023-04-17T20:03:32.464Z,5.70
2023-04-17T20:05:59.962Z,5.80
2023-04-17T20:08:26.537Z,5.57
2023-04-17T20:10:52.921Z,5.43
2023-04-17T20:13:19.364Z,5.50
2023-04-17T20:15:45.846Z,6.60
2023-04-17T20:18:12.514Z,5.80
2023-04-17T20:20:39.180Z,5.40
2023-04-17T20:23:06.084Z,5.30
2023-04-17T20:25:32.526Z,6.10
2023-04-17T20:27:58.944Z,5.37
2023-04-17T20:30:25.472Z,5.10
2023-04-17T20:32:52.156Z,4.60
2023-04-17T20:35:20.888Z,5.10
2023-04-17T20:37:47.424Z,5.10
2023-04-17T20:40:14.287Z,6.27
2023-04-17T20:42:42.128Z,5.80
2023-04-17T20:45:09.476Z,6.37
2023-04-17T20:47:37.410Z,6.87
2023-04-17T20:50:05.972Z,5.80
2023-04-17T20:52:33.093Z,6.30
2023-04-17T20:55:00.991Z,6.73
2023-04-17T20:57:28.400Z,5.70
2023-04-17T20:59:54.958Z,6.50
2023-04-17T21:02:21.775Z,6.20
2023-04-17T21:04:48.883Z,6.23
2023-04-17T21:07:15.947Z,6.30
2023-04-17T21:09:42.541Z,5.50
2023-04-17T21:12:09.148Z,6.70
2023-04-17T21:14:36.585Z,6.77
2023-04-17T21:17:03.085Z,5.90
2023-04-17T21:19:30.748Z,6.03
2023-04-17T21:21:58.337Z,6.90
2023-04-17T21:24:25.027Z,6.37
2023-04-17T21:26:51.582Z,5.47
2023-04-17T21:29:17.971Z,7.30
2023-04-17T21:31:44.450Z,6.70
2023-04-17T21:34:11.098Z,6.73
2023-04-17T21:36:37.686Z,6.33
2023-04-17T21:39:04.253Z,7.00
2023-04-17T21:41:31.794Z,6.40
2023-04-17T21:44:02.571Z,7.00
2023-04-17T21:46:29.364Z,6.43
2023-04-17T21:48:55.994Z,6.33
2023-04-17T21:51:23.050Z,6.60
2023-04-17T21:53:49.608Z,7.03
2023-04-17T21:56:16.058Z,6.67
2023-04-17T21:58:42.461Z,6.33
2023-04-17T22:01:08.907Z,7.40
2023-04-17T22:03:35.356Z,7.10
2023-04-17T22:06:01.780Z,6.47
2023-04-17T22:08:28.198Z,6.60
2023-04-17T22:10:54.604Z,6.50
2023-04-17T22:13:21.204Z,6.50
2023-04-17T22:15:48.387Z,6.30
2023-04-17T22:18:15.340Z,6.97
2023-04-17T22:20:41.725Z,6.30
2023-04-17T22:23:08.126Z,6.80
2023-04-17T22:25:34.540Z,7.60
2023-04-17T22:28:00.941Z,6.03
2023-04-17T22:30:27.330Z,6.80
2023-04-17T22:32:53.738Z,6.57
2023-04-17T22:35:20.150Z,6.60
2023-04-17T22:37:46.557Z,6.33
2023-04-17T22:40:13.490Z,6.83
2023-04-17T22:42:39.869Z,7.10
2023-04-17T22:45:06.645Z,7.87
2023-04-17T22:47:33.152Z,6.40
2023-04-17T22:49:59.830Z,6.50
2023-04-17T22:52:26.195Z,6.57
2023-04-17T22:54:52.576Z,7.10
2023-04-17T22:57:18.949Z,7.40
2023-04-17T22:59:45.405Z,5.80
2023-04-17T23:02:11.962Z,5.90
2023-04-17T23:04:38.495Z,6.80
2023-04-17T23:07:05.348Z,6.63
2023-04-17T23:09:31.773Z,6.43
2023-04-17T23:11:58.164Z,6.77
2023-04-17T23:14:26.142Z,7.13
2023-04-17T23:16:52.884Z,6.60
2023-04-17T23:19:21.187Z,7.13
2023-04-17T23:21:47.600Z,6.83
2023-04-17T23:24:14.296Z,6.73
2023-04-17T23:26:41.835Z,7.10
2023-04-17T23:29:08.251Z,7.00
2023-04-17T23:31:37.677Z,7.20
2023-04-17T23:34:04.188Z,6.40
2023-04-17T23:36:30.620Z,6.43
2023-04-17T23:38:57.043Z,6.50
2023-04-17T23:41:23.708Z,6.20
2023-04-17T23:43:51.317Z,6.87
2023-04-17T23:46:18.465Z,6.53
2023-04-17T23:48:44.889Z,6.83
2023-04-17T23:51:11.362Z,7.03
2023-04-17T23:53:37.802Z,6.90
2023-04-17T23:56:04.338Z,7.23
2023-04-17T23:58:30.789Z,7.20
